Nettleton, Mississippi
Current Conditions -  °F | °C
As of 11:53 AM on Tuesday 21 Oct 2014 (Local Time) from KTUP Reporting Station
Clear Clear  
Wind Chill: 71°   Ceiling: Unl
Heat Index: 71°   Visibility: 10mi
Dew Point: 54°   Wind: 6mph
Humidity: 55%   Direction: 30°NNE
Pressure: 30.08"   Gusts: NA
Location:  34.09°N, 88.62°W
Report Text: KTUP 211653Z 03005KT 10SM CLR 22/12 A3008 RMK AO2 SLP182 T02170122 $
Loading
Personal Weather Stations






























Interactive Weather Map
Tropical Storm Tracking
New forecast layout! Learn more

10-Day Weather Forecast

Advertisements
Track Severe Weather on mobile